AIQ3130 VTBD-VTSC
Flight info
| Callsign | AIQ3130 |
|---|---|
| Flight time | 1h 13m |
| Altitude | 37000 |
| Route | KASNI3C KASNI M757 ROBDA W19 NTW |
| Aircraft | A320/M-SDE3FGHIRWY/LB1 |
Departure
| Time | 2026-04-16 06:53 |
|---|---|
| Airport | Don Mueang International Airport (VTBD) |
Arrival
| Time | 2026-04-16 08:07 |
|---|---|
| Airport | Narathiwat Airport (VTSC) |
| Time | Latitude | Longitude | Altitude | Speed | Heading |
|---|---|---|---|---|---|
| 2026-04-16 06:35 | 13.91236 | 100.59928 | 18 ft | 0 kts | 208° |
| 2026-04-16 06:38 | 13.91240 | 100.59931 | 17 ft | 2 kts | 209° |
| 2026-04-16 06:39 | 13.91257 | 100.59941 | 19 ft | 3 kts | 215° |
| 2026-04-16 06:39 | 13.91273 | 100.59954 | 19 ft | 3 kts | 225° |
| 2026-04-16 06:39 | 13.91286 | 100.59969 | 17 ft | 3 kts | 244° |
| 2026-04-16 06:39 | 13.91290 | 100.59986 | 21 ft | 3 kts | 287° |
| 2026-04-16 06:40 | 13.91284 | 100.60001 | 17 ft | 3 kts | 298° |
| 2026-04-16 06:40 | 13.91274 | 100.60019 | 19 ft | 3 kts | 298° |
| 2026-04-16 06:40 | 13.91264 | 100.60037 | 20 ft | 3 kts | 298° |
| 2026-04-16 06:40 | 13.91258 | 100.60049 | 20 ft | 3 kts | 298° |
| 2026-04-16 06:41 | 13.91248 | 100.60068 | 17 ft | 3 kts | 298° |
| 2026-04-16 06:41 | 13.91235 | 100.60092 | 20 ft | 3 kts | 298° |
| 2026-04-16 06:41 | 13.91228 | 100.60104 | 17 ft | 3 kts | 298° |
| 2026-04-16 06:41 | 13.91219 | 100.60123 | 18 ft | 3 kts | 299° |
| 2026-04-16 06:42 | 13.91210 | 100.60138 | 18 ft | 1 kts | 299° |
| 2026-04-16 06:42 | 13.91204 | 100.60149 | 20 ft | 3 kts | 318° |
| 2026-04-16 06:42 | 13.91191 | 100.60155 | 18 ft | 3 kts | 16° |
| 2026-04-16 06:42 | 13.91180 | 100.60151 | 18 ft | 2 kts | 28° |
| 2026-04-16 06:43 | 13.91164 | 100.60142 | 17 ft | 3 kts | 28° |
| 2026-04-16 06:43 | 13.91152 | 100.60135 | 17 ft | 1 kts | 28° |
| 2026-04-16 06:43 | 13.91151 | 100.60135 | 17 ft | 0 kts | 28° |
| 2026-04-16 06:47 | 13.91184 | 100.60153 | 17 ft | 16 kts | 28° |
| 2026-04-16 06:47 | 13.91305 | 100.60220 | 17 ft | 20 kts | 28° |
| 2026-04-16 06:47 | 13.91419 | 100.60286 | 17 ft | 18 kts | 28° |
| 2026-04-16 06:48 | 13.91525 | 100.60344 | 17 ft | 16 kts | 28° |
| 2026-04-16 06:48 | 13.91620 | 100.60397 | 17 ft | 15 kts | 28° |
| 2026-04-16 06:48 | 13.91708 | 100.60446 | 17 ft | 14 kts | 28° |
| 2026-04-16 06:48 | 13.91788 | 100.60491 | 19 ft | 12 kts | 29° |
| 2026-04-16 06:49 | 13.91904 | 100.60557 | 19 ft | 26 kts | 28° |
| 2026-04-16 06:49 | 13.92064 | 100.60646 | 18 ft | 25 kts | 28° |
| 2026-04-16 06:49 | 13.92213 | 100.60730 | 18 ft | 24 kts | 28° |
| 2026-04-16 06:49 | 13.92356 | 100.60810 | 18 ft | 22 kts | 28° |
| 2026-04-16 06:50 | 13.92486 | 100.60883 | 18 ft | 20 kts | 29° |
| 2026-04-16 06:50 | 13.92607 | 100.60950 | 18 ft | 17 kts | 28° |
| 2026-04-16 06:50 | 13.92683 | 100.61016 | 18 ft | 14 kts | 81° |
| 2026-04-16 06:50 | 13.92649 | 100.61095 | 17 ft | 12 kts | 119° |
| 2026-04-16 06:51 | 13.92607 | 100.61173 | 16 ft | 13 kts | 119° |
| 2026-04-16 06:51 | 13.92563 | 100.61254 | 16 ft | 13 kts | 118° |
| 2026-04-16 06:51 | 13.92523 | 100.61329 | 17 ft | 11 kts | 118° |
| 2026-04-16 06:51 | 13.92488 | 100.61395 | 16 ft | 10 kts | 118° |
| 2026-04-16 06:52 | 13.92456 | 100.61455 | 17 ft | 9 kts | 119° |
| 2026-04-16 06:52 | 13.92422 | 100.61514 | 15 ft | 9 kts | 132° |
| 2026-04-16 06:52 | 13.92369 | 100.61508 | 14 ft | 9 kts | 207° |
| 2026-04-16 06:52 | 13.92363 | 100.61504 | 14 ft | 1 kts | 211° |
| 2026-04-16 06:53 | 13.92237 | 100.61433 | 16 ft | 55 kts | 208° |
| 2026-04-16 06:53 | 13.91704 | 100.61135 | 18 ft | 116 kts | 208° |
| 2026-04-16 06:53 | 13.90843 | 100.60660 | 117 ft | 156 kts | 208° |
| 2026-04-16 06:53 | 13.89896 | 100.60120 | 780 ft | 156 kts | 208° |
| 2026-04-16 06:54 | 13.88926 | 100.59582 | 1450 ft | 160 kts | 206° |
| 2026-04-16 06:54 | 13.88047 | 100.58804 | 1780 ft | 184 kts | 240° |
| 2026-04-16 06:54 | 13.87526 | 100.57495 | 2124 ft | 210 kts | 247° |
| 2026-04-16 06:54 | 13.86973 | 100.56008 | 2503 ft | 234 kts | 246° |
| 2026-04-16 06:55 | 13.86351 | 100.54355 | 2926 ft | 257 kts | 246° |
| 2026-04-16 06:55 | 13.85692 | 100.52605 | 3646 ft | 266 kts | 248° |
| 2026-04-16 06:55 | 13.85018 | 100.50809 | 4477 ft | 272 kts | 248° |
| 2026-04-16 06:55 | 13.84335 | 100.49009 | 5291 ft | 276 kts | 245° |
| 2026-04-16 06:56 | 13.83265 | 100.47348 | 6077 ft | 280 kts | 226° |
| 2026-04-16 06:56 | 13.81912 | 100.45875 | 6886 ft | 284 kts | 225° |
| 2026-04-16 06:56 | 13.80542 | 100.44401 | 7695 ft | 287 kts | 225° |
| 2026-04-16 06:56 | 13.79094 | 100.42967 | 8487 ft | 290 kts | 214° |
| 2026-04-16 06:57 | 13.77295 | 100.42099 | 9238 ft | 291 kts | 192° |
| 2026-04-16 06:57 | 13.75271 | 100.41998 | 9973 ft | 294 kts | 171° |
| 2026-04-16 06:57 | 13.73250 | 100.42564 | 10345 ft | 312 kts | 160° |
| 2026-04-16 06:57 | 13.71130 | 100.43354 | 10636 ft | 331 kts | 159° |
| 2026-04-16 06:58 | 13.68956 | 100.44206 | 11269 ft | 336 kts | 159° |
| 2026-04-16 06:58 | 13.66762 | 100.45077 | 11972 ft | 340 kts | 159° |
| 2026-04-16 06:58 | 13.64535 | 100.45960 | 12664 ft | 343 kts | 159° |
| 2026-04-16 06:58 | 13.62314 | 100.46833 | 13288 ft | 348 kts | 159° |
| 2026-04-16 06:59 | 13.60026 | 100.47724 | 13881 ft | 353 kts | 159° |
| 2026-04-16 06:59 | 13.57710 | 100.48621 | 14437 ft | 357 kts | 159° |
| 2026-04-16 06:59 | 13.55374 | 100.49524 | 15008 ft | 360 kts | 159° |
| 2026-04-16 06:59 | 13.53016 | 100.50436 | 15553 ft | 364 kts | 159° |
| 2026-04-16 07:00 | 13.50629 | 100.51359 | 16105 ft | 368 kts | 159° |
| 2026-04-16 07:00 | 13.48235 | 100.52285 | 16642 ft | 372 kts | 159° |
| 2026-04-16 07:00 | 13.45794 | 100.53228 | 17177 ft | 376 kts | 159° |
| 2026-04-16 07:01 | 13.40843 | 100.55148 | 18229 ft | 384 kts | 159° |
| 2026-04-16 07:01 | 13.38365 | 100.56111 | 18691 ft | 386 kts | 159° |
| 2026-04-16 07:01 | 13.35832 | 100.57091 | 19170 ft | 389 kts | 159° |
| 2026-04-16 07:01 | 13.33284 | 100.58077 | 19666 ft | 391 kts | 159° |
| 2026-04-16 07:02 | 13.30733 | 100.59063 | 20151 ft | 393 kts | 159° |
| 2026-04-16 07:02 | 13.28164 | 100.60058 | 20627 ft | 395 kts | 159° |
| 2026-04-16 07:02 | 13.25583 | 100.61057 | 21092 ft | 398 kts | 159° |
| 2026-04-16 07:02 | 13.22987 | 100.62063 | 21549 ft | 400 kts | 159° |
| 2026-04-16 07:03 | 13.20398 | 100.63069 | 21998 ft | 403 kts | 159° |
| 2026-04-16 07:03 | 13.17774 | 100.64088 | 22454 ft | 405 kts | 159° |
| 2026-04-16 07:03 | 13.15126 | 100.65112 | 22894 ft | 407 kts | 159° |
| 2026-04-16 07:03 | 13.12458 | 100.66139 | 23345 ft | 410 kts | 159° |
| 2026-04-16 07:04 | 13.09764 | 100.67121 | 23715 ft | 412 kts | 164° |
| 2026-04-16 07:04 | 13.06938 | 100.67680 | 24063 ft | 414 kts | 175° |
| 2026-04-16 07:04 | 13.04050 | 100.67732 | 24415 ft | 416 kts | 182° |
| 2026-04-16 07:04 | 13.01147 | 100.67646 | 24765 ft | 418 kts | 182° |
| 2026-04-16 07:05 | 12.98263 | 100.67565 | 25130 ft | 420 kts | 182° |
| 2026-04-16 07:05 | 12.95330 | 100.67488 | 25508 ft | 421 kts | 182° |
| 2026-04-16 07:05 | 12.92392 | 100.67414 | 25849 ft | 423 kts | 182° |
| 2026-04-16 07:05 | 12.89427 | 100.67339 | 26198 ft | 425 kts | 183° |
| 2026-04-16 07:06 | 12.86503 | 100.67264 | 26577 ft | 426 kts | 182° |
| 2026-04-16 07:06 | 12.83522 | 100.67185 | 26866 ft | 429 kts | 182° |
| 2026-04-16 07:06 | 12.80527 | 100.67105 | 27197 ft | 431 kts | 182° |
| 2026-04-16 07:06 | 12.77518 | 100.67026 | 27516 ft | 433 kts | 183° |
| 2026-04-16 07:07 | 12.74492 | 100.66949 | 27844 ft | 435 kts | 182° |
| 2026-04-16 07:07 | 12.71449 | 100.66870 | 28156 ft | 437 kts | 182° |
| 2026-04-16 07:07 | 12.68435 | 100.66793 | 28468 ft | 439 kts | 183° |
| 2026-04-16 07:07 | 12.65366 | 100.66713 | 28783 ft | 441 kts | 182° |
| 2026-04-16 07:08 | 12.62283 | 100.66635 | 29081 ft | 443 kts | 183° |
| 2026-04-16 07:08 | 12.59185 | 100.66554 | 29392 ft | 445 kts | 183° |
| 2026-04-16 07:08 | 12.56083 | 100.66472 | 29697 ft | 447 kts | 183° |
| 2026-04-16 07:08 | 12.53002 | 100.66392 | 29965 ft | 449 kts | 183° |
| 2026-04-16 07:09 | 12.49866 | 100.66310 | 30204 ft | 451 kts | 183° |
| 2026-04-16 07:09 | 12.46711 | 100.66227 | 30446 ft | 453 kts | 183° |
| 2026-04-16 07:09 | 12.43541 | 100.66144 | 30683 ft | 454 kts | 183° |
| 2026-04-16 07:09 | 12.40413 | 100.66060 | 30910 ft | 456 kts | 183° |
| 2026-04-16 07:10 | 12.37228 | 100.65976 | 31143 ft | 458 kts | 183° |
| 2026-04-16 07:10 | 12.34032 | 100.65894 | 31383 ft | 459 kts | 183° |
| 2026-04-16 07:10 | 12.30841 | 100.65810 | 31725 ft | 458 kts | 183° |
| 2026-04-16 07:10 | 12.27683 | 100.65729 | 32055 ft | 457 kts | 183° |
| 2026-04-16 07:11 | 12.24505 | 100.65647 | 32390 ft | 456 kts | 183° |
| 2026-04-16 07:11 | 12.21330 | 100.65564 | 32727 ft | 455 kts | 183° |
| 2026-04-16 07:11 | 12.18163 | 100.65481 | 33049 ft | 454 kts | 183° |
| 2026-04-16 07:11 | 12.15002 | 100.65401 | 33376 ft | 454 kts | 183° |
| 2026-04-16 07:12 | 12.11838 | 100.65322 | 33716 ft | 453 kts | 183° |
| 2026-04-16 07:12 | 12.08686 | 100.65242 | 34035 ft | 452 kts | 183° |
| 2026-04-16 07:12 | 12.05534 | 100.65161 | 34320 ft | 452 kts | 183° |
| 2026-04-16 07:12 | 12.02428 | 100.65083 | 34589 ft | 451 kts | 183° |
| 2026-04-16 07:13 | 11.99289 | 100.65003 | 34855 ft | 451 kts | 183° |
| 2026-04-16 07:13 | 11.96157 | 100.64921 | 35114 ft | 450 kts | 183° |
| 2026-04-16 07:13 | 11.93022 | 100.64839 | 35369 ft | 450 kts | 183° |
| 2026-04-16 07:13 | 11.89890 | 100.64759 | 35619 ft | 449 kts | 183° |
| 2026-04-16 07:14 | 11.86759 | 100.64679 | 35869 ft | 449 kts | 183° |
| 2026-04-16 07:14 | 11.83633 | 100.64601 | 36111 ft | 448 kts | 182° |
| 2026-04-16 07:14 | 11.80514 | 100.64525 | 36381 ft | 447 kts | 182° |
| 2026-04-16 07:14 | 11.77441 | 100.64450 | 36623 ft | 447 kts | 182° |
| 2026-04-16 07:15 | 11.74332 | 100.64370 | 36805 ft | 447 kts | 182° |
| 2026-04-16 07:15 | 11.68131 | 100.64205 | 36856 ft | 443 kts | 182° |
| 2026-04-16 07:16 | 11.61970 | 100.64044 | 36857 ft | 442 kts | 182° |
| 2026-04-16 07:16 | 11.55853 | 100.63891 | 36858 ft | 442 kts | 182° |
| 2026-04-16 07:17 | 11.49692 | 100.63742 | 36855 ft | 442 kts | 182° |
| 2026-04-16 07:17 | 11.43551 | 100.63586 | 36859 ft | 441 kts | 182° |
| 2026-04-16 07:18 | 11.37421 | 100.63435 | 36859 ft | 442 kts | 182° |
| 2026-04-16 07:18 | 11.31273 | 100.63285 | 36856 ft | 442 kts | 182° |
| 2026-04-16 07:19 | 11.25107 | 100.63128 | 36853 ft | 442 kts | 182° |
| 2026-04-16 07:19 | 11.18947 | 100.62970 | 36855 ft | 442 kts | 182° |
| 2026-04-16 07:20 | 11.12830 | 100.62814 | 36860 ft | 442 kts | 182° |
| 2026-04-16 07:20 | 11.06660 | 100.62662 | 36863 ft | 442 kts | 182° |
| 2026-04-16 07:21 | 11.00543 | 100.62504 | 36859 ft | 442 kts | 182° |
| 2026-04-16 07:21 | 10.94380 | 100.62349 | 36862 ft | 442 kts | 182° |
| 2026-04-16 07:22 | 10.89267 | 100.62220 | 36864 ft | 442 kts | 182° |
| 2026-04-16 07:22 | 10.82122 | 100.62042 | 36859 ft | 442 kts | 182° |
| 2026-04-16 07:23 | 10.76970 | 100.61913 | 36861 ft | 442 kts | 182° |
| 2026-04-16 07:23 | 10.69810 | 100.61730 | 36865 ft | 442 kts | 183° |
| 2026-04-16 07:24 | 10.63695 | 100.61571 | 36866 ft | 442 kts | 182° |
| 2026-04-16 07:24 | 10.58545 | 100.61443 | 36865 ft | 441 kts | 182° |
| 2026-04-16 07:25 | 10.52441 | 100.61294 | 36865 ft | 441 kts | 182° |
| 2026-04-16 07:25 | 10.46295 | 100.61139 | 36863 ft | 441 kts | 182° |
| 2026-04-16 07:26 | 10.40159 | 100.60985 | 36864 ft | 440 kts | 182° |
| 2026-04-16 07:26 | 10.34061 | 100.60838 | 36863 ft | 440 kts | 183° |
| 2026-04-16 07:27 | 10.27929 | 100.60697 | 36864 ft | 440 kts | 183° |
| 2026-04-16 07:27 | 10.21797 | 100.60548 | 36862 ft | 440 kts | 183° |
| 2026-04-16 07:28 | 10.15713 | 100.60392 | 36864 ft | 440 kts | 183° |
| 2026-04-16 07:28 | 10.09583 | 100.60239 | 36863 ft | 440 kts | 183° |
| 2026-04-16 07:29 | 10.03463 | 100.60093 | 36860 ft | 440 kts | 183° |
| 2026-04-16 07:29 | 9.97342 | 100.59947 | 36858 ft | 440 kts | 183° |
| 2026-04-16 07:30 | 9.91248 | 100.59792 | 36861 ft | 440 kts | 183° |
| 2026-04-16 07:30 | 9.85117 | 100.59641 | 36861 ft | 440 kts | 183° |
| 2026-04-16 07:31 | 9.79016 | 100.59497 | 36868 ft | 440 kts | 183° |
| 2026-04-16 07:31 | 9.72887 | 100.59346 | 36867 ft | 440 kts | 183° |
| 2026-04-16 07:32 | 9.66799 | 100.59197 | 36865 ft | 440 kts | 183° |
| 2026-04-16 07:32 | 9.60677 | 100.59052 | 36870 ft | 439 kts | 182° |
| 2026-04-16 07:33 | 9.54568 | 100.58903 | 36871 ft | 439 kts | 182° |
| 2026-04-16 07:33 | 9.48453 | 100.58756 | 36871 ft | 439 kts | 183° |
| 2026-04-16 07:34 | 9.42378 | 100.59080 | 36875 ft | 441 kts | 169° |
| 2026-04-16 07:34 | 9.36518 | 100.60951 | 36868 ft | 442 kts | 162° |
| 2026-04-16 07:35 | 9.30714 | 100.62950 | 36865 ft | 442 kts | 163° |
| 2026-04-16 07:35 | 9.24878 | 100.64948 | 36873 ft | 441 kts | 162° |
| 2026-04-16 07:36 | 9.19049 | 100.66940 | 36875 ft | 441 kts | 162° |
| 2026-04-16 07:36 | 9.13273 | 100.68922 | 36875 ft | 440 kts | 162° |
| 2026-04-16 07:37 | 9.07466 | 100.70915 | 36857 ft | 440 kts | 162° |
| 2026-04-16 07:37 | 9.01669 | 100.72896 | 36856 ft | 439 kts | 162° |
| 2026-04-16 07:38 | 8.95895 | 100.74870 | 36857 ft | 439 kts | 162° |
| 2026-04-16 07:38 | 8.90102 | 100.76856 | 36855 ft | 439 kts | 162° |
| 2026-04-16 07:39 | 8.84299 | 100.78842 | 36856 ft | 439 kts | 162° |
| 2026-04-16 07:39 | 8.78516 | 100.80813 | 36858 ft | 438 kts | 162° |
| 2026-04-16 07:40 | 8.72765 | 100.82778 | 36857 ft | 438 kts | 162° |
| 2026-04-16 07:40 | 8.66981 | 100.84758 | 36851 ft | 438 kts | 162° |
| 2026-04-16 07:41 | 8.61229 | 100.86725 | 36847 ft | 438 kts | 162° |
| 2026-04-16 07:41 | 8.55443 | 100.88703 | 36850 ft | 438 kts | 162° |
| 2026-04-16 07:42 | 8.49666 | 100.90675 | 36857 ft | 437 kts | 162° |
| 2026-04-16 07:42 | 8.43919 | 100.92634 | 36854 ft | 437 kts | 162° |
| 2026-04-16 07:43 | 8.38148 | 100.94603 | 36851 ft | 437 kts | 162° |
| 2026-04-16 07:43 | 8.32403 | 100.96567 | 36850 ft | 437 kts | 162° |
| 2026-04-16 07:43 | 8.29518 | 100.97551 | 36632 ft | 437 kts | 162° |
| 2026-04-16 07:44 | 8.26635 | 100.98532 | 36382 ft | 437 kts | 162° |
| 2026-04-16 07:44 | 8.23770 | 100.99508 | 35972 ft | 434 kts | 162° |
| 2026-04-16 07:44 | 8.20901 | 101.00488 | 35444 ft | 432 kts | 162° |
| 2026-04-16 07:44 | 8.18056 | 101.01461 | 34928 ft | 429 kts | 162° |
| 2026-04-16 07:45 | 8.15221 | 101.02430 | 34419 ft | 427 kts | 162° |
| 2026-04-16 07:45 | 8.12434 | 101.03381 | 33902 ft | 426 kts | 162° |
| 2026-04-16 07:45 | 8.09625 | 101.04339 | 33337 ft | 424 kts | 162° |
| 2026-04-16 07:45 | 8.06837 | 101.05289 | 32818 ft | 421 kts | 161° |
| 2026-04-16 07:46 | 8.04139 | 101.06431 | 32297 ft | 419 kts | 157° |
| 2026-04-16 07:46 | 8.01485 | 101.07634 | 31787 ft | 417 kts | 157° |
| 2026-04-16 07:46 | 7.98841 | 101.08832 | 31276 ft | 415 kts | 157° |
| 2026-04-16 07:46 | 7.96210 | 101.10022 | 30772 ft | 413 kts | 157° |
| 2026-04-16 07:47 | 7.93597 | 101.11201 | 30279 ft | 411 kts | 158° |
| 2026-04-16 07:47 | 7.90989 | 101.12374 | 29784 ft | 408 kts | 158° |
| 2026-04-16 07:47 | 7.88430 | 101.13522 | 29272 ft | 405 kts | 158° |
| 2026-04-16 07:47 | 7.85867 | 101.14678 | 28818 ft | 400 kts | 157° |
| 2026-04-16 07:48 | 7.83330 | 101.15826 | 28362 ft | 396 kts | 157° |
| 2026-04-16 07:48 | 7.80853 | 101.16945 | 27915 ft | 392 kts | 157° |
| 2026-04-16 07:48 | 7.78376 | 101.18063 | 27473 ft | 388 kts | 157° |
| 2026-04-16 07:48 | 7.75921 | 101.19171 | 27018 ft | 385 kts | 157° |
| 2026-04-16 07:49 | 7.73479 | 101.20270 | 26569 ft | 382 kts | 157° |
| 2026-04-16 07:49 | 7.71057 | 101.21356 | 26094 ft | 380 kts | 157° |
| 2026-04-16 07:49 | 7.68644 | 101.22438 | 25627 ft | 378 kts | 157° |
| 2026-04-16 07:49 | 7.66270 | 101.23506 | 25151 ft | 377 kts | 157° |
| 2026-04-16 07:50 | 7.63874 | 101.24588 | 24675 ft | 376 kts | 157° |
| 2026-04-16 07:50 | 7.61476 | 101.25669 | 24182 ft | 376 kts | 157° |
| 2026-04-16 07:50 | 7.59088 | 101.26746 | 23693 ft | 376 kts | 156° |
| 2026-04-16 07:50 | 7.56702 | 101.27821 | 23148 ft | 376 kts | 156° |
| 2026-04-16 07:51 | 7.54314 | 101.28895 | 22622 ft | 374 kts | 156° |
| 2026-04-16 07:51 | 7.51969 | 101.29951 | 22145 ft | 372 kts | 156° |
| 2026-04-16 07:51 | 7.49604 | 101.31015 | 21654 ft | 370 kts | 156° |
| 2026-04-16 07:51 | 7.47255 | 101.32072 | 21170 ft | 369 kts | 156° |
| 2026-04-16 07:52 | 7.44905 | 101.33130 | 20704 ft | 368 kts | 156° |
| 2026-04-16 07:52 | 7.42573 | 101.34179 | 20230 ft | 366 kts | 155° |
| 2026-04-16 07:52 | 7.40277 | 101.35209 | 19768 ft | 365 kts | 155° |
| 2026-04-16 07:52 | 7.37951 | 101.36255 | 19300 ft | 365 kts | 155° |
| 2026-04-16 07:53 | 7.35635 | 101.37298 | 18838 ft | 364 kts | 155° |
| 2026-04-16 07:53 | 7.33322 | 101.38338 | 18415 ft | 362 kts | 155° |
| 2026-04-16 07:53 | 7.31022 | 101.39374 | 17951 ft | 361 kts | 155° |
| 2026-04-16 07:53 | 7.28769 | 101.40388 | 17501 ft | 358 kts | 155° |
| 2026-04-16 07:54 | 7.26496 | 101.41411 | 17107 ft | 353 kts | 155° |
| 2026-04-16 07:54 | 7.24276 | 101.42408 | 16546 ft | 343 kts | 155° |
| 2026-04-16 07:54 | 7.22132 | 101.43371 | 16134 ft | 331 kts | 155° |
| 2026-04-16 07:54 | 7.20046 | 101.44306 | 15737 ft | 327 kts | 155° |
| 2026-04-16 07:55 | 7.17960 | 101.45242 | 15337 ft | 328 kts | 155° |
| 2026-04-16 07:55 | 7.15907 | 101.46165 | 14946 ft | 328 kts | 155° |
| 2026-04-16 07:55 | 7.13816 | 101.47106 | 14543 ft | 329 kts | 155° |
| 2026-04-16 07:55 | 7.11725 | 101.48049 | 14141 ft | 329 kts | 155° |
| 2026-04-16 07:56 | 7.09630 | 101.48990 | 13743 ft | 330 kts | 155° |
| 2026-04-16 07:56 | 7.07528 | 101.49933 | 13306 ft | 331 kts | 155° |
| 2026-04-16 07:56 | 7.05423 | 101.50874 | 12881 ft | 330 kts | 154° |
| 2026-04-16 07:56 | 7.03329 | 101.51811 | 12468 ft | 328 kts | 154° |
| 2026-04-16 07:57 | 7.01249 | 101.52743 | 12068 ft | 327 kts | 154° |
| 2026-04-16 07:57 | 6.99169 | 101.53676 | 11649 ft | 326 kts | 154° |
| 2026-04-16 07:57 | 6.97119 | 101.54595 | 11232 ft | 325 kts | 154° |
| 2026-04-16 07:57 | 6.95069 | 101.55516 | 10934 ft | 320 kts | 154° |
| 2026-04-16 07:58 | 6.93039 | 101.56434 | 10535 ft | 318 kts | 152° |
| 2026-04-16 07:58 | 6.91207 | 101.57659 | 10106 ft | 315 kts | 135° |
| 2026-04-16 07:58 | 6.89835 | 101.59342 | 9790 ft | 307 kts | 119° |
| 2026-04-16 07:58 | 6.88819 | 101.61159 | 9410 ft | 293 kts | 118° |
| 2026-04-16 07:59 | 6.87816 | 101.62934 | 8822 ft | 287 kts | 119° |
| 2026-04-16 07:59 | 6.86834 | 101.64659 | 8392 ft | 283 kts | 120° |
| 2026-04-16 07:59 | 6.85857 | 101.66380 | 7974 ft | 284 kts | 119° |
| 2026-04-16 07:59 | 6.84878 | 101.68107 | 7552 ft | 284 kts | 120° |
| 2026-04-16 08:00 | 6.83905 | 101.69822 | 7108 ft | 286 kts | 120° |
| 2026-04-16 08:00 | 6.82919 | 101.71568 | 6667 ft | 287 kts | 120° |
| 2026-04-16 08:00 | 6.81937 | 101.73306 | 6199 ft | 289 kts | 120° |
| 2026-04-16 08:00 | 6.80937 | 101.75068 | 5816 ft | 287 kts | 120° |
| 2026-04-16 08:01 | 6.79961 | 101.76790 | 5289 ft | 280 kts | 120° |
| 2026-04-16 08:01 | 6.79010 | 101.78468 | 4812 ft | 271 kts | 120° |
| 2026-04-16 08:01 | 6.78079 | 101.80113 | 4352 ft | 271 kts | 120° |
| 2026-04-16 08:01 | 6.77132 | 101.81760 | 3898 ft | 272 kts | 123° |
| 2026-04-16 08:02 | 6.75795 | 101.83047 | 3435 ft | 272 kts | 152° |
| 2026-04-16 08:02 | 6.72271 | 101.83135 | 2929 ft | 248 kts | 205° |
| 2026-04-16 08:02 | 6.70759 | 101.82444 | 2957 ft | 230 kts | 204° |
| 2026-04-16 08:03 | 6.69345 | 101.81829 | 2969 ft | 214 kts | 203° |
| 2026-04-16 08:03 | 6.68049 | 101.81275 | 2965 ft | 190 kts | 203° |
| 2026-04-16 08:03 | 6.66906 | 101.80786 | 2950 ft | 169 kts | 203° |
| 2026-04-16 08:03 | 6.65852 | 101.80335 | 2956 ft | 161 kts | 203° |
| 2026-04-16 08:04 | 6.64831 | 101.79897 | 2811 ft | 156 kts | 203° |
| 2026-04-16 08:04 | 6.63837 | 101.79470 | 2436 ft | 159 kts | 203° |
| 2026-04-16 08:04 | 6.62825 | 101.79033 | 2120 ft | 155 kts | 202° |
| 2026-04-16 08:04 | 6.61837 | 101.78606 | 1965 ft | 153 kts | 203° |
| 2026-04-16 08:05 | 6.60851 | 101.78178 | 1885 ft | 155 kts | 201° |
| 2026-04-16 08:05 | 6.59845 | 101.77744 | 1867 ft | 159 kts | 202° |
| 2026-04-16 08:05 | 6.58836 | 101.77286 | 1683 ft | 161 kts | 204° |
| 2026-04-16 08:05 | 6.57818 | 101.76830 | 1296 ft | 161 kts | 200° |
| 2026-04-16 08:06 | 6.56793 | 101.76396 | 1018 ft | 157 kts | 201° |
| 2026-04-16 08:06 | 6.55803 | 101.75967 | 756 ft | 155 kts | 202° |
| 2026-04-16 08:06 | 6.54794 | 101.75534 | 580 ft | 157 kts | 200° |
| 2026-04-16 08:06 | 6.53769 | 101.75106 | 259 ft | 159 kts | 201° |
| 2026-04-16 08:07 | 6.52788 | 101.74685 | 56 ft | 152 kts | 202° |
| 2026-04-16 08:07 | 6.51906 | 101.74312 | 27 ft | 113 kts | 204° |
| 2026-04-16 08:07 | 6.51415 | 101.74097 | 29 ft | 42 kts | 203° |